Union, Utah
Current Conditions -  °F | °C
As of 7:53 AM on Tuesday 21 Oct 2014 (Local Time) from KSLC Reporting Station
Scattered Clouds Scattered Clouds  
Wind Chill: 61°   Ceiling: Unl
Heat Index: 61°   Visibility: 10mi
Dew Point: 40°   Wind: 13mph
Humidity: 46%   Direction: 150°SSE
Pressure: 29.89"   Gusts: NA
Location:  40.615°N, 111.891°W
Report Text: KSLC 211353Z 15011KT 10SM FEW065TCU SCT100 SCT200 16/04 A2989 RMK AO2 SLP081 CB DSNT SE TCU SW AND NW AND DSNT NW T01610044
Loading
Personal Weather Stations






























Interactive Weather Map
Tropical Storm Tracking
New forecast layout! Learn more

10-Day Weather Forecast

Advertisements
Track Severe Weather on mobile